Time;durP1;ratioP1;P1;durP2;ratioP2;P2;SDS_P1;SDS_P2;PMS_P1;PMS_P2;Temp;Humidity;BMP_temperature;BMP_pressure;BME280_temperature;BME280_humidity;BME280_pressure;Samples;Min_cycle;Max_cycle;Signal;HPM_P1;HPM_P2
2023/07/14 00:02:21;;;;;;;16.40;8.85;;;14.40;77.50;;;;;;5027296;28;20045;-89
2023/07/14 00:05:06;;;;;;;;;;;;;;;;;;;;;
2023/07/14 00:07:33;;;;;;;12.75;8.68;;;14.30;77.50;;;;;;5047406;28;20451;-89
2023/07/14 00:10:55;;;;;;;13.18;8.02;;;14.20;77.50;;;;;;5056913;28;20137;-90
2023/07/14 00:13:21;;;;;;;12.18;7.90;;;14.20;77.70;;;;;;5035285;28;20079;-89
2023/07/14 00:15:49;;;;;;;10.75;8.32;;;14.10;77.50;;;;;;5039877;28;20092;-90
2023/07/14 00:18:45;;;;;;;12.73;9.20;;;14.10;77.40;;;;;;5033477;28;20045;-89
2023/07/14 00:21:26;;;;;;;15.52;9.60;;;14.00;77.80;;;;;;5028556;28;20052;-89
2023/07/14 00:24:00;;;;;;;15.13;10.30;;;14.00;78.00;;;;;;5007992;28;20052;-89
2023/07/14 00:26:31;;;;;;;17.20;11.40;;;14.00;78.20;;;;;;5028407;28;20124;-91
2023/07/14 00:28:59;;;;;;;16.52;12.18;;;14.00;78.50;;;;;;5017240;28;20191;-90
2023/07/14 00:31:25;;;;;;;20.88;11.55;;;14.00;78.90;;;;;;5020688;28;20079;-89
2023/07/14 00:34:10;;;;;;;;;;;;;;;;;;;;;
2023/07/14 00:36:49;;;;;;;19.63;10.80;;;13.90;79.40;;;;;;5029620;28;20060;-90
2023/07/14 00:39:16;;;;;;;17.08;11.23;;;13.90;79.60;;;;;;5036442;28;20041;-89
2023/07/14 00:41:50;;;;;;;20.33;11.63;;;13.90;79.80;;;;;;5040115;28;20051;-89
2023/07/14 00:44:19;;;;;;;16.65;11.13;;;13.90;79.60;;;;;;5020352;28;20056;-89
2023/07/14 00:46:54;;;;;;;15.15;10.25;;;13.90;79.50;;;;;;5050633;28;20037;-91
2023/07/14 00:49:34;;;;;;;17.35;11.30;;;13.90;79.70;;;;;;5017730;28;20077;-90
2023/07/14 00:52:24;;;;;;;21.52;11.70;;;14.00;79.90;;;;;;5036651;28;20079;-89
2023/07/14 00:54:52;;;;;;;18.35;11.07;;;14.00;80.00;;;;;;5008977;28;20501;-89
2023/07/14 00:57:20;;;;;;;16.73;11.23;;;14.00;80.00;;;;;;5018792;28;20132;-90
2023/07/14 01:00:12;;;;;;;17.77;11.68;;;14.00;80.10;;;;;;5045079;28;20079;-90
2023/07/14 01:02:50;;;;;;;20.23;11.65;;;14.00;80.00;;;;;;5023167;28;20193;-89
2023/07/14 01:05:16;;;;;;;21.42;11.63;;;14.00;80.10;;;;;;5034196;28;20302;-90
2023/07/14 01:07:46;;;;;;;15.52;11.75;;;14.00;80.10;;;;;;5029288;28;20458;-89
2023/07/14 01:10:21;;;;;;;16.23;11.70;;;14.00;80.10;;;;;;5035776;28;20045;-90
2023/07/14 01:13:11;;;;;;;;;;;;;;;;;;;;;
2023/07/14 01:15:40;;;;;;;17.65;12.10;;;14.00;80.00;;;;;;5035723;28;20053;-89
2023/07/14 01:18:17;;;;;;;18.20;12.15;;;14.00;80.10;;;;;;5018465;28;21155;-90
2023/07/14 01:20:49;;;;;;;18.67;12.30;;;14.00;80.10;;;;;;5019520;28;20041;-90
2023/07/14 01:23:35;;;;;;;17.75;12.05;;;14.00;80.10;;;;;;5004999;28;20052;-90
2023/07/14 01:26:28;;;;;;;21.98;12.82;;;14.00;80.20;;;;;;5036207;28;20049;-90
2023/07/14 01:28:54;;;;;;;22.27;13.35;;;13.90;80.40;;;;;;5034023;28;20045;-90
2023/07/14 01:31:23;;;;;;;16.90;12.90;;;13.90;80.40;;;;;;5015482;28;20155;-89
2023/07/14 01:33:53;;;;;;;21.40;13.25;;;13.90;80.30;;;;;;5017146;28;20053;-89
2023/07/14 01:36:24;;;;;;;25.50;14.55;;;13.90;80.20;;;;;;5016945;28;20049;-92
2023/07/14 01:38:51;;;;;;;21.83;13.95;;;13.90;80.20;;;;;;5016371;28;20048;-90
2023/07/14 01:41:17;;;;;;;24.27;14.30;;;13.90;80.20;;;;;;5018736;28;20052;-90
2023/07/14 01:43:46;;;;;;;17.20;14.13;;;13.90;80.30;;;;;;5033861;28;20136;-89
2023/07/14 01:46:27;;;;;;;21.50;14.65;;;13.90;80.30;;;;;;5001452;28;20137;-91
2023/07/14 01:49:17;;;;;;;24.05;15.82;;;13.90;80.30;;;;;;4994190;28;20116;-90
2023/07/14 01:51:48;;;;;;;23.83;16.15;;;13.90;80.40;;;;;;5008714;28;20041;-90
2023/07/14 01:54:36;;;;;;;22.95;15.02;;;13.90;80.30;;;;;;4999966;28;20075;-89
2023/07/14 01:57:12;;;;;;;21.27;15.20;;;13.90;80.40;;;;;;5031975;28;20626;-90
2023/07/14 01:59:51;;;;;;;25.58;15.68;;;13.90;80.20;;;;;;5033388;28;20064;-90
2023/07/14 02:02:57;;;;;;;22.98;15.82;;;13.90;80.10;;;;;;5007004;28;20037;-89
2023/07/14 02:05:41;;;;;;;20.30;15.65;;;13.90;80.30;;;;;;5018355;28;20049;-89
2023/07/14 02:08:16;;;;;;;23.35;16.42;;;13.90;80.10;;;;;;5011346;28;20040;-90
2023/07/14 02:11:04;;;;;;;25.85;16.67;;;13.90;80.00;;;;;;5017642;28;20044;-89
2023/07/14 02:13:32;;;;;;;24.33;16.30;;;13.90;80.00;;;;;;5024171;28;20060;-90
2023/07/14 02:15:58;;;;;;;24.17;15.85;;;13.90;80.20;;;;;;5028344;28;20056;-89
2023/07/14 02:18:29;;;;;;;22.88;16.00;;;13.90;80.20;;;;;;5046958;28;20090;-90
2023/07/14 02:20:58;;;;;;;23.30;16.08;;;13.90;80.20;;;;;;5054557;28;20044;-90
2023/07/14 02:23:35;;;;;;;28.20;17.00;;;13.90;80.20;;;;;;5022476;28;20041;-89
2023/07/14 02:26:24;;;;;;;24.58;16.00;;;13.90;80.20;;;;;;5039225;28;20422;-89
2023/07/14 02:28:56;;;;;;;24.58;15.88;;;13.90;80.10;;;;;;5053963;28;20048;-90
2023/07/14 02:31:24;;;;;;;26.30;16.30;;;13.90;80.20;;;;;;5038776;28;20049;-90
2023/07/14 02:33:51;;;;;;;26.02;16.40;;;13.80;80.30;;;;;;5052010;28;20083;-89
2023/07/14 02:37:08;;;;;;;;;;;;;;;;;;;;;
2023/07/14 02:39:49;;;;;;;22.25;15.98;;;13.80;80.40;;;;;;5036313;28;20068;-89
2023/07/14 02:42:15;;;;;;;22.95;15.63;;;13.80;80.40;;;;;;5049356;28;20045;-90
2023/07/14 02:44:44;;;;;;;22.73;15.85;;;13.80;80.20;;;;;;5038175;28;20080;-90
2023/07/14 02:47:16;;;;;;;25.92;16.15;;;13.80;80.20;;;;;;5047117;28;20066;-91
2023/07/14 02:49:52;;;;;;;;;;;;;;;;;;;;;
2023/07/14 02:52:30;;;;;;;22.83;14.60;;;13.80;80.30;;;;;;5045813;28;20123;-89
2023/07/14 02:55:06;;;;;;;21.05;15.88;;;13.80;80.30;;;;;;5050322;28;20052;-90
2023/07/14 02:57:34;;;;;;;22.83;15.57;;;13.80;80.20;;;;;;5022037;28;20055;-90
2023/07/14 02:59:59;;;;;;;24.17;15.43;;;13.80;80.20;;;;;;5035999;28;20049;-90
2023/07/14 03:02:38;;;;;;;22.55;15.85;;;13.80;80.10;;;;;;5021577;28;20033;-90
2023/07/14 03:05:15;;;;;;;25.27;16.15;;;13.70;80.20;;;;;;5022439;28;20045;-90
2023/07/14 03:07:43;;;;;;;23.33;16.25;;;13.80;80.20;;;;;;5036351;28;20612;-90
2023/07/14 03:10:09;;;;;;;26.27;17.20;;;13.80;80.20;;;;;;5016146;28;20052;-90
2023/07/14 03:12:35;;;;;;;26.50;16.92;;;13.70;80.20;;;;;;5042718;28;20543;-91
2023/07/14 03:15:02;;;;;;;22.05;15.82;;;13.70;80.20;;;;;;5049115;28;20063;-89
2023/07/14 03:17:27;;;;;;;22.33;16.38;;;13.70;80.20;;;;;;5036019;28;20040;-89
2023/07/14 03:19:53;;;;;;;23.65;17.80;;;13.70;80.10;;;;;;5047973;28;20044;-91
2023/07/14 03:22:23;;;;;;;19.40;16.08;;;13.70;80.20;;;;;;5030357;28;20528;-91
2023/07/14 03:24:50;;;;;;;22.83;15.73;;;13.70;80.20;;;;;;5017205;28;20047;-90
2023/07/14 03:27:18;;;;;;;25.90;16.73;;;13.70;80.20;;;;;;5023736;28;20045;-90
2023/07/14 03:30:02;;;;;;;;;;;;;;;;;;;;;
2023/07/14 03:32:34;;;;;;;24.27;16.83;;;13.70;80.20;;;;;;5032824;28;20048;-90
2023/07/14 03:35:02;;;;;;;25.20;17.10;;;13.60;80.20;;;;;;5034011;28;20103;-89
2023/07/14 03:37:40;;;;;;;27.73;16.67;;;13.60;80.30;;;;;;5019944;28;20095;-90
2023/07/14 03:40:19;;;;;;;25.10;16.50;;;13.60;80.20;;;;;;5024550;28;20053;-90
2023/07/14 03:42:47;;;;;;;25.60;16.42;;;13.60;80.30;;;;;;5018396;28;20110;-92
2023/07/14 03:45:31;;;;;;;23.27;16.63;;;13.60;80.40;;;;;;5032175;28;20047;-90
2023/07/14 03:48:15;;;;;;;23.73;16.30;;;13.50;80.40;;;;;;5035699;28;20051;-89
2023/07/14 03:50:50;;;;;;;24.10;16.50;;;13.50;80.30;;;;;;5043516;28;20128;-90
2023/07/14 03:53:39;;;;;;;27.15;16.02;;;13.50;80.40;;;;;;5040467;28;20512;-90
2023/07/14 03:56:09;;;;;;;23.20;16.20;;;13.50;80.40;;;;;;5012515;28;20053;-91
2023/07/14 03:58:40;;;;;;;21.67;14.75;;;13.50;80.40;;;;;;5035882;28;20048;-90
2023/07/14 04:01:19;;;;;;;;;;;;;;;;;;;;;
2023/07/14 04:03:46;;;;;;;21.73;15.20;;;13.50;80.30;;;;;;5053894;28;20302;-89
2023/07/14 04:06:12;;;;;;;27.27;16.40;;;13.50;80.40;;;;;;5041102;28;20073;-90
2023/07/14 04:08:44;;;;;;;25.88;15.98;;;13.50;80.40;;;;;;5024467;28;20111;-90
2023/07/14 04:11:11;;;;;;;22.38;15.38;;;13.50;80.50;;;;;;5016952;28;20485;-90
2023/07/14 04:13:37;;;;;;;23.77;15.23;;;13.50;80.40;;;;;;5015205;28;20041;-90
2023/07/14 04:16:09;;;;;;;25.05;15.63;;;13.50;80.40;;;;;;5058115;28;20056;-90
2023/07/14 04:18:40;;;;;;;23.85;14.05;;;13.50;80.40;;;;;;5011748;28;20044;-90
2023/07/14 04:21:34;;;;;;;;;;;;;;;;;;;;;
2023/07/14 04:23:58;;;;;;;21.70;14.60;;;13.50;80.40;;;;;;5049533;28;20044;-90
2023/07/14 04:26:40;;;;;;;21.45;14.02;;;13.50;80.40;;;;;;5035224;28;20105;-92
2023/07/14 04:29:15;;;;;;;23.80;13.65;;;13.50;80.30;;;;;;5032329;28;20591;-90
2023/07/14 04:32:07;;;;;;;22.40;14.10;;;13.60;80.30;;;;;;5053049;28;20040;-90
2023/07/14 04:35:06;;;;;;;25.92;14.38;;;13.60;80.20;;;;;;5001101;28;20044;-90
2023/07/14 04:38:00;;;;;;;19.85;12.93;;;13.60;80.20;;;;;;5049302;28;20122;-91
2023/07/14 04:43:59;;;;;;;19.67;13.75;;;13.60;80.30;;;;;;5011607;28;20087;-90
2023/07/14 04:46:49;;;;;;;22.05;13.65;;;13.70;80.10;;;;;;5054030;28;20870;-93
2023/07/14 04:49:25;;;;;;;;;;;;;;;;;;;;;
2023/07/14 04:52:00;;;;;;;20.90;12.85;;;13.70;80.10;;;;;;5090186;28;20044;-91
2023/07/14 04:54:49;;;;;;;;;;;;;;;;;;;;;
2023/07/14 04:57:29;;;;;;;20.10;11.73;;;13.90;80.00;;;;;;5004295;28;20147;-91
2023/07/14 05:00:35;;;;;;;22.02;12.23;;;13.90;79.90;;;;;;4942598;28;20050;-91
2023/07/14 05:03:15;;;;;;;17.33;11.52;;;13.90;79.90;;;;;;4961768;28;20580;-92
2023/07/14 05:06:11;;;;;;;;;;;;;;;;;;;;;
2023/07/14 05:09:26;;;;;;;16.02;10.65;;;14.10;79.80;;;;;;4974144;28;20050;-91
2023/07/14 05:12:39;;;;;;;23.90;11.25;;;14.20;79.70;;;;;;4982958;28;20066;-91
2023/07/14 05:15:30;;;;;;;15.27;10.13;;;14.30;79.70;;;;;;4985192;28;20526;-91
2023/07/14 05:17:56;;;;;;;16.38;9.95;;;14.40;79.50;;;;;;4923735;28;20236;-91
2023/07/14 05:20:30;;;;;;;16.90;9.35;;;14.50;79.50;;;;;;4961406;28;20149;-93
2023/07/14 05:23:26;;;;;;;;;;;;;;;;;;;;;
2023/07/14 05:26:00;;;;;;;18.83;9.55;;;14.60;79.20;;;;;;5025923;28;20041;-90
2023/07/14 05:28:33;;;;;;;;;;;14.80;79.20;;;;;;5005281;28;20052;-91
2023/07/14 05:31:00;;;;;;;14.55;8.52;;;14.80;79.20;;;;;;5041746;28;19986;-91
2023/07/14 05:33:31;;;;;;;17.17;8.68;;;14.90;79.10;;;;;;5047524;28;20056;-90
2023/07/14 05:36:00;;;;;;;14.25;8.65;;;15.00;79.10;;;;;;5048491;28;20110;-92
2023/07/14 05:46:44;;;;;;;14.23;7.70;;;15.30;78.50;;;;;;4952239;28;20051;-95
2023/07/14 05:52:43;;;;;;;17.48;7.50;;;15.60;78.40;;;;;;4944597;28;20523;-91
2023/07/14 05:55:33;;;;;;;16.50;7.13;;;15.60;77.80;;;;;;4943601;28;20109;-92
2023/07/14 05:57:59;;;;;;;;;;;15.80;77.90;;;;;;5012908;28;20098;-91
2023/07/14 06:00:40;;;;;;;;;;;;;;;;;;;;;
2023/07/14 06:03:36;;;;;;;14.65;6.93;;;15.90;77.50;;;;;;5002004;28;20057;-91
2023/07/14 06:06:32;;;;;;;17.38;6.40;;;16.00;77.50;;;;;;4960753;28;20062;-91
2023/07/14 06:09:14;;;;;;;12.80;6.32;;;16.10;76.90;;;;;;4934232;28;20058;-92
2023/07/14 06:11:54;;;;;;;10.88;6.28;;;16.10;76.80;;;;;;4977721;28;20046;-92
2023/07/14 06:14:57;;;;;;;14.25;5.90;;;16.20;76.90;;;;;;4951458;28;20074;-92
2023/07/14 06:17:33;;;;;;;9.13;5.40;;;16.30;76.50;;;;;;4966280;28;20127;-91
2023/07/14 06:20:19;;;;;;;13.40;5.32;;;16.40;76.80;;;;;;5012777;28;20401;-92
2023/07/14 06:22:50;;;;;;;12.38;5.25;;;16.40;76.60;;;;;;5033611;28;20041;-92
2023/07/14 06:25:58;;;;;;;12.27;5.65;;;16.50;76.40;;;;;;4997329;28;20057;-92
2023/07/14 06:28:27;;;;;;;10.98;5.55;;;16.60;76.20;;;;;;4964564;28;20587;-92
2023/07/14 06:31:18;;;;;;;11.85;5.45;;;16.70;76.00;;;;;;4998587;28;20049;-91
2023/07/14 06:33:56;;;;;;;11.25;5.05;;;16.80;75.40;;;;;;4985621;28;20050;-91
2023/07/14 06:36:33;;;;;;;13.02;5.18;;;16.90;75.60;;;;;;5008889;28;20629;-94
2023/07/14 06:43:00;;;;;;;;;;;;;;;;;;;;;
2023/07/14 06:48:40;;;;;;;11.73;4.95;;;17.20;75.30;;;;;;4974497;28;20187;-91
2023/07/14 06:51:40;;;;;;;13.82;5.22;;;17.20;75.10;;;;;;5016202;28;20077;-92
2023/07/14 06:53:57;;;;;;;;;;;17.20;75.00;;;;;;4933145;28;20194;-91
2023/07/14 07:00:20;;;;;;;;;;;;;;;;;;;;;
2023/07/14 07:02:58;;;;;;;;;;;;;;;;;;;;;
2023/07/14 07:05:38;;;;;;;19.95;5.05;;;17.40;74.70;;;;;;5026064;28;21292;-91
2023/07/14 07:08:40;;;;;;;10.70;5.00;;;17.50;74.70;;;;;;5003434;28;20211;-93
2023/07/14 07:11:33;;;;;;;11.55;4.50;;;17.50;73.80;;;;;;4982201;28;20140;-93
2023/07/14 07:14:56;;;;;;;;;;;;;;;;;;;;;
2023/07/14 07:17:23;;;;;;;9.77;3.88;;;17.60;73.50;;;;;;4998318;28;21405;-94
2023/07/14 07:20:01;;;;;;;;;;;;;;;;;;;;;
2023/07/14 07:22:30;;;;;;;11.88;3.75;;;17.70;73.60;;;;;;5038617;28;20055;-91
2023/07/14 07:25:16;;;;;;;9.48;4.00;;;17.80;73.20;;;;;;5013561;28;20056;-92
2023/07/14 07:30:51;;;;;;;8.27;3.80;;;17.90;73.40;;;;;;5024594;28;20056;-95
2023/07/14 07:33:33;;;;;;;7.68;4.03;;;18.00;72.70;;;;;;5001639;28;20055;-93
2023/07/14 07:36:39;;;;;;;;;;;;;;;;;;;;;
2023/07/14 07:39:49;;;;;;;;;;;;;;;;;;;;;
2023/07/14 07:42:55;;;;;;;8.95;4.28;;;18.10;72.00;;;;;;5054416;28;20057;-92
2023/07/14 07:45:24;;;;;;;13.25;5.00;;;18.10;71.50;;;;;;4985107;28;20056;-91
2023/07/14 07:47:52;;;;;;;10.38;5.60;;;18.20;71.90;;;;;;4999562;28;20079;-92
2023/07/14 07:50:39;;;;;;;11.98;5.50;;;18.20;71.60;;;;;;5031212;28;21367;-95
2023/07/14 07:54:12;;;;;;;;;;;;;;;;;;;;;
2023/07/14 08:02:11;;;;;;;;;;;;;;;;;;;;;
2023/07/14 08:12:31;;;;;;;;;;;;;;;;;;;;;
2023/07/14 08:15:46;;;;;;;6.22;4.68;;;18.30;70.50;;;;;;4673041;30;20094;-93
2023/07/14 08:30:28;;;;;;;7.30;4.15;;;18.70;68.30;;;;;;4716644;27;11838912;-94
2023/07/14 09:07:02;;;;;;;4.05;2.33;;;19.40;65.90;;;;;;4806692;29;20064;-96
2023/07/14 09:18:30;;;;;;;;;;;19.90;65.40;;;;;;4960453;28;20862;-93
2023/07/14 09:24:49;;;;;;;4.43;1.98;;;19.90;64.00;;;;;;4966874;28;20140;-92
2023/07/14 09:27:34;;;;;;;5.88;2.00;;;19.60;63.70;;;;;;4958914;28;20096;-93
2023/07/14 09:30:18;;;;;;;6.05;2.25;;;19.40;64.70;;;;;;4961896;28;20530;-91
2023/07/14 09:35:45;;;;;;;6.10;2.38;;;19.20;65.30;;;;;;5011223;28;20057;-94
2023/07/14 09:38:34;;;;;;;7.38;2.60;;;19.40;64.50;;;;;;4975421;28;20075;-93
2023/07/14 09:41:16;;;;;;;6.40;2.40;;;19.50;64.10;;;;;;4991332;28;20087;-93
2023/07/14 09:43:57;;;;;;;3.60;1.90;;;19.70;64.10;;;;;;4974087;28;20061;-95
2023/07/14 09:46:44;;;;;;;5.82;2.40;;;19.90;63.70;;;;;;4992244;28;20032;-94
2023/07/14 09:49:35;;;;;;;5.45;2.60;;;20.00;63.80;;;;;;5012392;28;20614;-91
2023/07/14 09:52:33;;;;;;;;;;;;;;;;;;;;;
2023/07/14 09:58:49;;;;;;;5.93;2.35;;;20.00;63.70;;;;;;4962607;28;20151;-91
2023/07/14 10:01:29;;;;;;;8.10;2.65;;;20.10;62.40;;;;;;4984225;28;20525;-91
2023/07/14 10:04:30;;;;;;;4.15;2.70;;;20.30;63.30;;;;;;4953215;28;20057;-91
2023/07/14 10:11:32;;;;;;;;;;;;;;;;;;;;;
2023/07/14 10:14:42;;;;;;;5.88;3.00;;;20.30;63.20;;;;;;4948134;28;20088;-92
2023/07/14 10:21:17;;;;;;;6.75;3.10;;;20.30;62.80;;;;;;4972323;28;20554;-94
2023/07/14 10:24:24;;;;;;;7.88;3.08;;;20.10;63.00;;;;;;4957636;28;20059;-93
2023/07/14 10:27:13;;;;;;;5.13;3.08;;;20.00;63.10;;;;;;4934953;28;20050;-89
2023/07/14 10:29:48;;;;;;;11.55;3.40;;;19.90;63.90;;;;;;4976403;28;20061;-89
2023/07/14 10:32:32;;;;;;;7.40;3.25;;;20.00;64.30;;;;;;4985485;28;20049;-90
2023/07/14 10:35:18;;;;;;;7.10;2.80;;;20.10;64.50;;;;;;5001382;28;20048;-89
2023/07/14 10:37:56;;;;;;;8.20;3.10;;;20.20;64.30;;;;;;5012060;28;20048;-90
2023/07/14 10:40:36;;;;;;;7.53;3.78;;;20.30;64.40;;;;;;5009976;28;20068;-90
2023/07/14 10:43:45;;;;;;;7.30;3.38;;;20.30;64.10;;;;;;4995639;28;20049;-91
2023/07/14 10:46:23;;;;;;;6.32;3.78;;;20.40;63.80;;;;;;4977547;28;20571;-89
2023/07/14 10:49:11;;;;;;;6.15;3.90;;;20.50;64.20;;;;;;5003592;28;20049;-89
2023/07/14 10:51:51;;;;;;;8.95;3.88;;;20.60;64.50;;;;;;5005469;28;20049;-90
2023/07/14 10:54:39;;;;;;;8.07;3.65;;;20.70;64.00;;;;;;5001082;28;20083;-90
2023/07/14 10:57:14;;;;;;;7.05;3.60;;;20.80;63.60;;;;;;4991705;28;20060;-90
2023/07/14 11:00:30;;;;;;;5.22;3.45;;;20.70;63.50;;;;;;5010147;28;20177;-89
2023/07/14 11:03:47;;;;;;;;;;;;;;;;;;;;;
2023/07/14 11:06:13;;;;;;;9.15;3.42;;;20.50;62.90;;;;;;4950451;28;20423;-91
2023/07/14 11:13:34;;;;;;;7.55;4.10;;;20.30;63.60;;;;;;4969948;28;20096;-93
2023/07/14 11:20:50;;;;;;;7.53;3.92;;;20.30;63.40;;;;;;4931896;28;21291;-92
2023/07/14 11:23:41;;;;;;;4.60;3.10;;;20.50;63.00;;;;;;4909646;28;20268;-95
2023/07/14 11:26:16;;;;;;;6.63;3.45;;;20.50;63.80;;;;;;4922906;28;20126;-92
2023/07/14 11:29:32;;;;;;;;;;;;;;;;;;;;;
2023/07/14 11:33:22;;;;;;;;;;;;;;;;;;;;;
2023/07/14 11:47:59;;;;;;;;;;;20.90;63.20;;;;;;4845965;29;20069;-96
2023/07/14 11:54:38;;;;;;;6.70;3.28;;;20.90;62.70;;;;;;4895506;29;20098;-91
2023/07/14 11:57:52;;;;;;;8.68;2.95;;;21.00;62.00;;;;;;4906889;28;20088;-92
2023/07/14 12:00:39;;;;;;;7.40;3.35;;;21.10;61.50;;;;;;4887627;28;20047;-92
2023/07/14 12:03:28;;;;;;;7.30;3.67;;;21.20;61.00;;;;;;4917160;28;20434;-93
2023/07/14 12:06:15;;;;;;;5.82;3.25;;;21.20;60.50;;;;;;4935878;28;20058;-95
2023/07/14 12:11:58;;;;;;;4.97;3.10;;;21.10;61.20;;;;;;4948407;28;20046;-92
2023/07/14 12:14:46;;;;;;;5.80;2.70;;;21.10;61.50;;;;;;4944131;28;20132;-92
2023/07/14 12:17:40;;;;;;;5.95;2.95;;;21.10;61.30;;;;;;4948754;28;20092;-92
2023/07/14 12:20:15;;;;;;;6.93;3.00;;;21.20;61.30;;;;;;4965080;28;20940;-92
2023/07/14 12:29:50;;;;;;;5.68;3.42;;;21.30;61.10;;;;;;4955019;28;20073;-94
2023/07/14 12:32:19;;;;;;;5.68;3.33;;;21.40;61.00;;;;;;4953147;28;21433;-88
2023/07/14 12:34:46;;;;;;;8.88;3.22;;;21.40;61.40;;;;;;4970557;28;20229;-91
2023/07/14 12:37:35;;;;;;;8.07;3.30;;;21.50;61.30;;;;;;4973878;28;20046;-93
2023/07/14 12:40:03;;;;;;;5.53;3.45;;;21.50;61.20;;;;;;4974445;28;20084;-90
2023/07/14 12:42:30;;;;;;;8.80;3.45;;;21.50;60.90;;;;;;4953037;28;20067;-91
2023/07/14 12:45:10;;;;;;;8.10;3.80;;;21.40;60.90;;;;;;4975635;28;20119;-91
2023/07/14 12:48:11;;;;;;;7.97;3.58;;;21.30;61.20;;;;;;4959075;28;20053;-91
2023/07/14 12:51:20;;;;;;;7.47;3.78;;;21.20;61.00;;;;;;4959152;28;20185;-93
2023/07/14 13:05:17;;;;;;;7.82;3.65;;;21.20;61.50;;;;;;4756705;29;20054;-93
2023/07/14 13:08:03;;;;;;;6.93;3.75;;;21.30;61.60;;;;;;4819660;29;20122;-93
2023/07/14 13:10:53;;;;;;;8.75;4.20;;;21.20;61.50;;;;;;4858091;29;20195;-93
2023/07/14 13:29:02;;;;;;;7.95;4.70;;;21.10;61.80;;;;;;4787657;29;21431;-93
2023/07/14 13:31:38;;;;;;;11.32;4.60;;;21.20;61.30;;;;;;4796047;29;20156;-90
2023/07/14 13:35:21;;;;;;;11.63;5.18;;;21.10;61.70;;;;;;4808195;29;20065;-92
2023/07/14 13:37:58;;;;;;;9.15;4.50;;;21.10;61.20;;;;;;4919449;28;20425;-91
2023/07/14 13:40:37;;;;;;;11.23;4.47;;;20.90;61.60;;;;;;5001731;28;20516;-91
2023/07/14 13:43:17;;;;;;;8.48;4.97;;;20.80;62.30;;;;;;4982864;28;20184;-90
2023/07/14 13:45:44;;;;;;;7.63;4.35;;;20.80;62.20;;;;;;5009867;28;20064;-90
2023/07/14 13:48:33;;;;;;;8.75;4.57;;;20.70;62.60;;;;;;4960056;28;20141;-91
2023/07/14 13:51:10;;;;;;;10.32;4.50;;;20.70;63.00;;;;;;5004974;28;20057;-90
2023/07/14 13:53:36;;;;;;;9.43;5.32;;;20.70;63.70;;;;;;4992549;28;20063;-90
2023/07/14 13:56:02;;;;;;;10.00;5.13;;;20.70;63.70;;;;;;5011931;28;20076;-90
2023/07/14 13:58:35;;;;;;;8.70;5.13;;;20.70;63.90;;;;;;4991184;28;20143;-90
2023/07/14 14:01:01;;;;;;;7.82;5.07;;;20.70;63.80;;;;;;5013114;28;20143;-90
2023/07/14 14:03:37;;;;;;;8.68;5.10;;;20.80;63.80;;;;;;5004085;28;21302;-91
2023/07/14 14:06:08;;;;;;;11.52;5.38;;;20.80;63.90;;;;;;5012910;28;20079;-90
2023/07/14 14:08:34;;;;;;;12.20;5.75;;;20.90;64.10;;;;;;4993619;28;20040;-90
2023/07/14 14:11:00;;;;;;;11.48;6.03;;;20.90;63.70;;;;;;5013244;28;20056;-90
2023/07/14 14:13:26;;;;;;;9.98;5.65;;;21.00;63.40;;;;;;5012420;28;20048;-90
2023/07/14 14:15:51;;;;;;;10.18;5.00;;;21.10;63.40;;;;;;5012944;28;20056;-89
2023/07/14 14:18:21;;;;;;;11.45;5.90;;;21.10;63.50;;;;;;4990374;28;20061;-90
2023/07/14 14:20:48;;;;;;;10.85;5.68;;;21.20;63.00;;;;;;5010316;28;20045;-90
2023/07/14 14:23:17;;;;;;;11.63;5.45;;;21.10;63.10;;;;;;5024450;28;20075;-90
2023/07/14 14:25:43;;;;;;;8.88;5.07;;;21.30;63.20;;;;;;4993429;28;20146;-90
2023/07/14 14:28:10;;;;;;;9.27;5.20;;;21.30;63.30;;;;;;4988490;28;20425;-89
2023/07/14 14:30:44;;;;;;;12.38;5.75;;;21.30;63.20;;;;;;5017964;28;20394;-90
2023/07/14 14:33:27;;;;;;;8.90;5.18;;;21.40;62.50;;;;;;4993582;28;20053;-91
2023/07/14 14:35:54;;;;;;;9.77;4.72;;;21.40;62.20;;;;;;4993552;28;20045;-90
2023/07/14 14:38:27;;;;;;;10.48;4.88;;;21.40;62.20;;;;;;4990361;28;20041;-90
2023/07/14 14:40:54;;;;;;;8.90;4.40;;;21.40;61.80;;;;;;4978090;28;20048;-90
2023/07/14 14:43:26;;;;;;;9.38;5.10;;;21.50;62.60;;;;;;4992037;28;20095;-90
2023/07/14 14:45:57;;;;;;;11.05;5.70;;;21.50;62.60;;;;;;4992478;28;20056;-90
2023/07/14 14:48:43;;;;;;;9.88;5.18;;;21.50;62.80;;;;;;4989744;28;20067;-89
2023/07/14 14:51:13;;;;;;;8.95;4.75;;;21.50;62.80;;;;;;4993079;28;20056;-90
2023/07/14 14:53:42;;;;;;;10.57;5.32;;;21.50;62.90;;;;;;4996964;28;21311;-90
2023/07/14 14:56:43;;;;;;;10.93;5.07;;;21.60;63.00;;;;;;4997783;28;20058;-90
2023/07/14 14:59:30;;;;;;;12.70;4.93;;;21.70;63.00;;;;;;4970491;28;20047;-89
2023/07/14 15:01:56;;;;;;;8.30;5.18;;;21.70;62.70;;;;;;4980726;28;20049;-90
2023/07/14 15:04:34;;;;;;;9.23;4.55;;;21.70;62.10;;;;;;4997587;28;20063;-91
2023/07/14 15:07:03;;;;;;;10.38;4.72;;;21.70;61.80;;;;;;5026296;28;20072;-92
2023/07/14 15:09:44;;;;;;;;;;;21.70;61.80;;;;;;4979105;28;20124;-92
2023/07/14 15:12:44;;;;;;;9.52;4.93;;;21.60;63.20;;;;;;4988054;28;19972;-92
2023/07/14 15:15:45;;;;;;;7.57;4.72;;;21.50;61.50;;;;;;4985938;28;20045;-91
2023/07/14 15:18:13;;;;;;;9.65;5.00;;;21.50;61.70;;;;;;4988672;28;20200;-89
2023/07/14 15:20:46;;;;;;;11.05;5.03;;;21.40;61.90;;;;;;5016619;28;20610;-92
2023/07/14 15:23:29;;;;;;;7.72;4.13;;;21.40;61.40;;;;;;5002926;28;20123;-91
2023/07/14 15:26:23;;;;;;;10.18;5.07;;;21.30;61.60;;;;;;4998860;28;20300;-92
2023/07/14 15:28:53;;;;;;;9.30;4.57;;;21.40;61.80;;;;;;4981403;28;20048;-91
2023/07/14 15:31:19;;;;;;;8.48;4.63;;;21.50;62.00;;;;;;5004206;28;20091;-90
2023/07/14 15:33:48;;;;;;;8.77;4.90;;;21.70;61.60;;;;;;4987295;28;20132;-90
2023/07/14 15:36:16;;;;;;;11.98;4.80;;;21.80;61.70;;;;;;5043153;28;20128;-90
2023/07/14 15:38:44;;;;;;;9.45;4.63;;;21.90;61.80;;;;;;4998591;28;20389;-91
2023/07/14 15:41:19;;;;;;;8.10;4.00;;;21.90;61.20;;;;;;5014484;28;20079;-90
2023/07/14 15:43:49;;;;;;;10.25;4.88;;;21.90;60.70;;;;;;5010792;28;20044;-90
2023/07/14 15:46:18;;;;;;;6.97;4.93;;;21.70;61.10;;;;;;5011355;28;20044;-91
2023/07/14 15:48:49;;;;;;;8.60;4.47;;;21.70;61.30;;;;;;5010026;28;20063;-89
2023/07/14 15:51:27;;;;;;;7.68;4.10;;;21.60;61.30;;;;;;5011039;28;20053;-90
2023/07/14 15:54:00;;;;;;;8.05;3.92;;;21.50;61.40;;;;;;5012430;28;20049;-90
2023/07/14 15:56:26;;;;;;;7.25;3.58;;;21.50;61.50;;;;;;5012212;28;20037;-90
2023/07/14 15:58:52;;;;;;;6.97;3.63;;;21.50;61.30;;;;;;5026274;28;20051;-89
2023/07/14 16:01:28;;;;;;;5.10;3.30;;;21.50;61.50;;;;;;5014407;28;20119;-90
2023/07/14 16:03:55;;;;;;;4.55;3.53;;;21.50;61.80;;;;;;5009138;28;20048;-90
2023/07/14 16:06:23;;;;;;;5.28;3.17;;;21.40;61.30;;;;;;5012058;28;20041;-91
2023/07/14 16:08:51;;;;;;;5.72;3.20;;;21.40;61.70;;;;;;5007885;28;20057;-90
2023/07/14 16:11:18;;;;;;;6.03;3.45;;;21.30;61.70;;;;;;5046706;28;20458;-91
2023/07/14 16:13:45;;;;;;;7.95;3.20;;;21.30;61.90;;;;;;5011571;28;20136;-90
2023/07/14 16:16:30;;;;;;;4.05;3.03;;;21.30;61.80;;;;;;4998386;28;20053;-94
2023/07/14 16:19:07;;;;;;;6.55;3.33;;;21.30;61.30;;;;;;5016410;28;20067;-91
2023/07/14 16:21:53;;;;;;;6.15;3.22;;;21.30;61.80;;;;;;5011376;28;20409;-91
2023/07/14 16:24:49;;;;;;;7.40;3.47;;;21.30;62.50;;;;;;5010137;28;20041;-89
2023/07/14 16:27:46;;;;;;;6.13;3.47;;;21.30;61.80;;;;;;5023412;28;20501;-94
2023/07/14 16:30:16;;;;;;;5.72;3.08;;;21.30;62.20;;;;;;5016365;28;20052;-88
2023/07/14 16:32:42;;;;;;;5.07;3.22;;;21.30;62.30;;;;;;5043549;28;20094;-88
2023/07/14 16:35:16;;;;;;;6.32;3.17;;;21.30;62.10;;;;;;5013447;28;20388;-89
2023/07/14 16:37:43;;;;;;;6.53;3.17;;;21.30;61.60;;;;;;5007323;28;20045;-89
2023/07/14 16:40:23;;;;;;;4.82;3.00;;;21.30;62.20;;;;;;5014074;28;20102;-89
2023/07/14 16:42:54;;;;;;;5.13;2.92;;;21.40;61.70;;;;;;4997847;28;20401;-89
2023/07/14 16:45:23;;;;;;;5.03;3.00;;;21.40;61.40;;;;;;5013909;28;20575;-89
2023/07/14 16:47:50;;;;;;;6.35;2.88;;;21.40;61.50;;;;;;5002868;28;20076;-88
2023/07/14 16:50:19;;;;;;;5.18;2.95;;;21.40;61.40;;;;;;5028378;28;20063;-91
2023/07/14 16:52:47;;;;;;;6.15;2.55;;;21.30;61.40;;;;;;5012785;28;20041;-88
2023/07/14 16:55:28;;;;;;;5.03;2.45;;;21.30;61.20;;;;;;5013318;28;20048;-89
2023/07/14 16:58:01;;;;;;;5.55;2.80;;;21.20;60.60;;;;;;5022484;28;20595;-88
2023/07/14 17:00:31;;;;;;;5.43;2.38;;;21.10;61.10;;;;;;5014082;28;20048;-88
2023/07/14 17:03:24;;;;;;;4.90;2.80;;;21.10;61.40;;;;;;5015594;28;20056;-89
2023/07/14 17:05:50;;;;;;;5.25;2.58;;;21.10;61.00;;;;;;5016429;28;20299;-88
2023/07/14 17:08:22;;;;;;;4.80;2.50;;;21.10;61.10;;;;;;5041372;28;20099;-88
2023/07/14 17:10:49;;;;;;;4.50;2.50;;;21.10;60.70;;;;;;5015821;28;20088;-89
2023/07/14 17:13:18;;;;;;;7.75;2.47;;;21.10;60.70;;;;;;5014875;28;20051;-88
2023/07/14 17:15:44;;;;;;;7.25;2.55;;;21.10;60.90;;;;;;5016456;28;20061;-89